map of LNS home
LNS - Airport
Location
City:  Lancaster, Pennsylvania, United States
ICAO:KLNS
IATA:LNS
FAA LID:LNS

Details
Type:Airport (Part 139 Class II)
Use:Public/Civil
Latitude:4007'20"N (40.122361)
Longitude:7617'40"W (-76.294360)
Datum:WGS 1984
Elevation:402 ft (123 m)
Variation:11.53W (WMM2015 magnetic declination)
0.01 annual change
Runways:2
Longest:6933 × 150 ft (2113 × 45.5 m), paved

Time
Time Zone:UTC-5 (DST-4)
Local Time:

Weather
METAR:KLNS 131053Z 28018G29KT 10SM OVC050 M07/M15 A2966 RMK AO2 PK WND 28029/1053 SLP048 T10671150 $
TAF:KLNS 131031Z 1311/1406 29017G27KT P6SM SCT060
FM132000 29014G22KT P6SM BKN050
FM140400 22006KT 2SM -SN BR OVC025

Related Locations
Nearby:
Farthest:MQZ: 11679 mi / 18795 km
Margaret River [Margaret River Airport], WA, AU

Find:

   beyond  
but within

Other Information
Maps:
Delays:
NOTAMs:
Links:
Sources:

  
flag of United States
flag of Pennsylvania
  

Airport Diagram

Airport diagram for LNS

Airport diagram PDF

Sectional Chart

Flight Planning
at skyvector.com

Satellite Image

Google Maps Satellite view

 

Copyright © 2004-2017 Karl L. Swartz. All rights reserved.
The Great Circle Mapper name and logo are trademarks of the Great Circle Mapper.
All other trademarks mentioned herein belong to their respective owners.
Please see credits for attibutions and further copyright information.

  Follow gcmap on Facebook Follow gcmap on Twitter Follow gcmap on Google+ GCmap on LinkedIn

hCard Microformat

Geo Microformat